createdAt,value
2023-01-27T00:01:35.765Z,13.19
2023-01-27T00:04:04.800Z,12.62
2023-01-27T00:06:32.827Z,13.05
2023-01-27T00:09:00.725Z,13.16
2023-01-27T00:11:45.968Z,13.39
2023-01-27T00:14:15.281Z,12.62
2023-01-27T00:16:43.196Z,12.41
2023-01-27T00:19:11.137Z,12.86
2023-01-27T00:21:56.554Z,12.75
2023-01-27T00:24:39.547Z,12.14
2023-01-27T00:27:09.398Z,12.81
2023-01-27T00:29:39.304Z,12.84
2023-01-27T00:32:25.257Z,14.44
2023-01-27T00:34:53.163Z,14.54
2023-01-27T00:37:21.570Z,14.49
2023-01-27T00:39:49.432Z,15.63
2023-01-27T00:42:17.355Z,15.29
2023-01-27T00:45:07.060Z,14.67
2023-01-27T00:47:34.971Z,15.00
2023-01-27T00:50:02.935Z,14.61
2023-01-27T00:52:30.813Z,15.65
2023-01-27T00:54:58.717Z,15.34
2023-01-27T00:57:26.911Z,16.01
2023-01-27T00:59:56.625Z,16.54
2023-01-27T01:02:25.663Z,16.75
2023-01-27T01:04:53.551Z,16.42
2023-01-27T01:07:21.423Z,16.61
2023-01-27T01:09:49.312Z,16.51
2023-01-27T01:12:17.236Z,15.20
2023-01-27T01:14:45.176Z,15.56
2023-01-27T01:17:14.452Z,16.69
2023-01-27T01:19:42.353Z,16.08
2023-01-27T01:22:10.230Z,16.66
2023-01-27T01:24:38.108Z,16.46
2023-01-27T01:27:05.972Z,16.54
2023-01-27T01:29:33.850Z,17.40
2023-01-27T01:32:01.711Z,17.88
2023-01-27T01:34:31.073Z,17.25
2023-01-27T01:36:58.936Z,17.67
2023-01-27T01:39:26.846Z,17.90
2023-01-27T01:41:54.757Z,17.78
2023-01-27T01:44:24.561Z,18.36
2023-01-27T01:46:52.539Z,17.84
2023-01-27T01:49:25.149Z,18.18
2023-01-27T01:51:58.963Z,17.97
2023-01-27T01:54:32.163Z,18.83
2023-01-27T01:57:07.283Z,18.50
2023-01-27T01:59:42.189Z,18.16
2023-01-27T02:02:14.513Z,17.89
2023-01-27T02:04:49.391Z,17.54
2023-01-27T02:07:26.803Z,18.31
2023-01-27T02:09:58.671Z,16.21
2023-01-27T02:12:26.593Z,17.30
2023-01-27T02:14:55.551Z,16.50
2023-01-27T02:17:24.018Z,16.54
2023-01-27T02:20:05.173Z,16.97
2023-01-27T02:22:45.045Z,16.38
2023-01-27T02:25:30.580Z,16.92
2023-01-27T02:27:59.810Z,15.94
2023-01-27T02:30:28.342Z,15.79
2023-01-27T02:32:56.290Z,16.21
2023-01-27T02:35:34.978Z,16.31
2023-01-27T02:38:03.964Z,14.98
2023-01-27T02:40:34.708Z,15.97
2023-01-27T02:43:06.322Z,17.27
2023-01-27T02:45:34.237Z,16.89
2023-01-27T02:48:02.372Z,17.17
2023-01-27T02:50:30.841Z,17.47
2023-01-27T02:52:58.769Z,17.28
2023-01-27T02:55:26.728Z,17.54
2023-01-27T02:57:54.601Z,18.06
2023-01-27T03:00:24.173Z,17.79
2023-01-27T03:02:52.007Z,18.44
2023-01-27T03:05:19.864Z,20.00
2023-01-27T03:07:47.764Z,19.49
2023-01-27T03:10:15.722Z,19.51
2023-01-27T03:12:45.690Z,18.98
2023-01-27T03:15:31.050Z,18.60
2023-01-27T03:18:16.144Z,19.27
2023-01-27T03:20:46.586Z,19.47
2023-01-27T03:23:15.599Z,19.09
2023-01-27T03:25:44.482Z,19.15
2023-01-27T03:28:13.311Z,18.51
2023-01-27T03:30:41.692Z,18.30
2023-01-27T03:33:11.074Z,18.80
2023-01-27T03:35:48.402Z,18.63
2023-01-27T03:38:35.072Z,18.32
2023-01-27T03:41:22.424Z,18.36
2023-01-27T03:44:08.450Z,18.24
2023-01-27T03:46:36.900Z,18.01
2023-01-27T03:49:06.135Z,17.85
2023-01-27T03:51:33.992Z,17.96
2023-01-27T03:54:02.002Z,17.86
2023-01-27T03:56:29.836Z,17.69
2023-01-27T03:58:57.857Z,18.43
2023-01-27T04:01:25.761Z,18.85
2023-01-27T04:04:11.426Z,18.85
2023-01-27T04:06:56.432Z,18.29
2023-01-27T04:09:27.089Z,18.37
2023-01-27T04:11:55.201Z,17.86
2023-01-27T04:14:25.161Z,17.98
2023-01-27T04:16:54.731Z,17.61
2023-01-27T04:19:22.763Z,17.81
2023-01-27T04:21:52.041Z,19.08
2023-01-27T04:24:23.829Z,18.21
2023-01-27T04:26:55.874Z,19.38
2023-01-27T04:29:25.821Z,19.33
2023-01-27T04:31:54.357Z,19.78
2023-01-27T04:34:22.561Z,19.10
2023-01-27T04:36:52.300Z,19.82
2023-01-27T04:39:20.522Z,20.11
2023-01-27T04:41:49.120Z,19.49
2023-01-27T04:44:17.115Z,20.38
2023-01-27T04:46:44.953Z,20.33
2023-01-27T04:49:13.239Z,19.99
2023-01-27T04:51:41.103Z,20.49
2023-01-27T04:54:10.486Z,20.97
2023-01-27T04:56:41.199Z,20.50
2023-01-27T04:59:13.983Z,19.61
2023-01-27T05:01:41.894Z,18.99
2023-01-27T05:04:09.867Z,18.73
2023-01-27T05:06:37.746Z,18.23
2023-01-27T05:09:05.598Z,17.76
2023-01-27T05:11:34.832Z,18.01
2023-01-27T05:14:02.732Z,18.88
2023-01-27T05:16:30.864Z,19.23
2023-01-27T05:18:58.796Z,18.13
2023-01-27T05:21:29.020Z,17.98
2023-01-27T05:23:56.928Z,17.61
2023-01-27T05:26:27.255Z,17.40
2023-01-27T05:28:58.992Z,19.39
2023-01-27T05:31:29.016Z,18.39
2023-01-27T05:33:59.788Z,18.66
2023-01-27T05:36:28.693Z,19.72
2023-01-27T05:38:57.755Z,20.25
2023-01-27T05:41:26.425Z,19.96
2023-01-27T05:43:57.041Z,19.40
2023-01-27T05:46:27.319Z,19.81
2023-01-27T05:48:57.056Z,18.69
2023-01-27T05:51:28.022Z,19.68
2023-01-27T05:53:56.032Z,20.12
2023-01-27T05:56:26.359Z,18.88
2023-01-27T05:58:55.345Z,18.88
2023-01-27T06:01:26.841Z,18.57
2023-01-27T06:03:54.905Z,18.32
2023-01-27T06:06:25.959Z,18.54
2023-01-27T06:08:54.355Z,18.90
2023-01-27T06:11:24.303Z,18.95
2023-01-27T06:13:53.533Z,19.55
2023-01-27T06:16:25.054Z,19.87
2023-01-27T06:18:53.102Z,19.10
2023-01-27T06:21:21.376Z,19.34
2023-01-27T06:23:50.217Z,19.89
2023-01-27T06:26:20.068Z,19.24
2023-01-27T06:28:48.213Z,19.67
2023-01-27T06:31:18.994Z,21.14
2023-01-27T06:33:49.238Z,20.64
2023-01-27T06:36:20.763Z,21.62
2023-01-27T06:38:50.017Z,21.45
2023-01-27T06:41:18.053Z,20.27
2023-01-27T06:43:45.951Z,21.81
2023-01-27T06:46:15.060Z,20.38
2023-01-27T06:48:43.003Z,19.86
2023-01-27T06:51:12.586Z,21.27
2023-01-27T06:53:40.613Z,20.45
2023-01-27T06:56:09.202Z,19.44
2023-01-27T06:58:37.118Z,19.92
2023-01-27T07:01:06.643Z,20.22
2023-01-27T07:03:37.375Z,20.71
2023-01-27T07:06:05.664Z,19.70
2023-01-27T07:08:35.052Z,19.42
2023-01-27T07:11:04.737Z,19.91
2023-01-27T07:13:32.750Z,19.52
2023-01-27T07:16:01.357Z,21.28
2023-01-27T07:18:29.299Z,21.42
2023-01-27T07:20:57.230Z,21.14
2023-01-27T07:23:25.192Z,20.99
2023-01-27T07:25:54.527Z,20.34
2023-01-27T07:28:22.501Z,20.69
2023-01-27T07:30:50.496Z,19.22
2023-01-27T07:33:18.422Z,18.81
2023-01-27T07:35:50.037Z,19.33
2023-01-27T07:38:18.154Z,18.61
2023-01-27T07:40:46.104Z,19.84
2023-01-27T07:43:15.440Z,19.20
2023-01-27T07:45:43.461Z,18.70
2023-01-27T07:48:12.524Z,19.12
2023-01-27T07:50:41.702Z,19.65
2023-01-27T07:53:09.655Z,19.67
2023-01-27T07:55:37.547Z,18.60
2023-01-27T07:58:05.662Z,17.33
2023-01-27T08:00:35.870Z,18.67
2023-01-27T08:03:06.015Z,18.67
2023-01-27T08:05:35.865Z,17.73
2023-01-27T08:08:04.761Z,17.28
2023-01-27T08:10:32.782Z,18.79
2023-01-27T08:13:00.799Z,19.36
2023-01-27T08:15:28.767Z,18.54
2023-01-27T08:17:59.773Z,19.34
2023-01-27T08:20:29.054Z,19.09
2023-01-27T08:22:57.799Z,21.29
2023-01-27T08:25:26.380Z,21.87
2023-01-27T08:27:57.369Z,21.95
2023-01-27T08:30:25.871Z,20.01
2023-01-27T08:32:53.837Z,19.14
2023-01-27T08:35:23.378Z,18.70
2023-01-27T08:37:51.622Z,18.93
2023-01-27T08:40:20.221Z,20.84
2023-01-27T08:42:50.610Z,25.69
2023-01-27T08:45:18.663Z,30.60
2023-01-27T08:47:46.586Z,28.74
2023-01-27T08:50:14.784Z,29.81
2023-01-27T08:52:44.285Z,23.77
2023-01-27T08:55:12.554Z,21.14
2023-01-27T08:57:40.531Z,22.09
2023-01-27T09:00:12.616Z,23.71
2023-01-27T09:02:41.315Z,25.40
2023-01-27T09:05:09.591Z,23.57
2023-01-27T09:07:38.035Z,24.91
2023-01-27T09:10:14.491Z,25.08
2023-01-27T09:12:43.691Z,24.08
2023-01-27T09:15:12.238Z,25.24
2023-01-27T09:17:40.125Z,25.38
2023-01-27T09:20:09.277Z,25.14
2023-01-27T09:22:40.170Z,26.69
2023-01-27T09:25:14.587Z,26.29
2023-01-27T09:27:42.561Z,26.67
2023-01-27T09:30:12.901Z,25.41
2023-01-27T09:32:41.047Z,26.22
2023-01-27T09:35:10.491Z,26.25
2023-01-27T09:37:47.060Z,39.49
2023-01-27T09:40:31.292Z,30.13
2023-01-27T09:43:32.649Z,25.12
2023-01-27T09:46:24.969Z,25.34
2023-01-27T09:49:24.143Z,24.43
2023-01-27T09:52:11.236Z,24.76
2023-01-27T09:54:54.347Z,25.83
2023-01-27T09:57:39.525Z,27.74
2023-01-27T10:00:27.690Z,26.86
2023-01-27T10:03:18.512Z,27.32
2023-01-27T10:06:10.962Z,27.91
2023-01-27T10:09:00.296Z,25.69
2023-01-27T10:11:39.786Z,26.40
2023-01-27T10:14:25.067Z,30.03
2023-01-27T10:17:12.837Z,34.04
2023-01-27T10:19:55.842Z,37.34
2023-01-27T10:22:42.803Z,31.45
2023-01-27T10:25:30.263Z,26.12
2023-01-27T10:28:01.584Z,24.50
2023-01-27T10:30:35.884Z,23.42
2023-01-27T10:33:17.531Z,23.11
2023-01-27T10:35:53.345Z,22.07
2023-01-27T10:38:38.000Z,22.55
2023-01-27T10:41:23.352Z,20.14
2023-01-27T10:44:07.430Z,20.69
2023-01-27T10:46:50.109Z,21.03
2023-01-27T10:49:25.637Z,21.35
2023-01-27T10:51:59.952Z,22.08
2023-01-27T10:54:35.452Z,22.06
2023-01-27T10:57:11.085Z,22.27
2023-01-27T11:00:10.920Z,21.94
2023-01-27T11:02:47.323Z,21.09
2023-01-27T11:05:23.783Z,21.83
2023-01-27T11:08:00.512Z,20.89
2023-01-27T11:10:37.842Z,21.54
2023-01-27T11:13:08.164Z,21.31
2023-01-27T11:15:36.477Z,24.09
2023-01-27T11:18:14.448Z,22.58
2023-01-27T11:20:45.812Z,22.07
2023-01-27T11:23:19.209Z,21.83
2023-01-27T11:25:55.262Z,22.10
2023-01-27T11:28:37.385Z,23.10
2023-01-27T11:31:17.840Z,23.01
2023-01-27T11:34:03.787Z,23.29
2023-01-27T11:36:32.470Z,22.99
2023-01-27T11:39:01.647Z,22.27
2023-01-27T11:41:29.582Z,22.84
2023-01-27T11:43:57.630Z,22.67
2023-01-27T11:46:25.940Z,21.46
2023-01-27T11:48:59.120Z,21.65
2023-01-27T11:51:32.857Z,21.62
2023-01-27T11:54:10.196Z,22.58
2023-01-27T11:56:40.700Z,22.61
2023-01-27T11:59:15.016Z,20.13
2023-01-27T12:01:49.380Z,21.63
2023-01-27T12:04:27.004Z,19.95
2023-01-27T12:07:01.534Z,20.72
2023-01-27T12:09:35.481Z,21.23
2023-01-27T12:12:29.887Z,31.63
2023-01-27T12:14:59.834Z,25.73
2023-01-27T12:17:34.809Z,22.49
2023-01-27T12:20:18.410Z,23.05
2023-01-27T12:22:48.826Z,23.12
2023-01-27T12:25:24.309Z,20.82
2023-01-27T12:27:57.818Z,23.74
2023-01-27T12:30:30.757Z,25.72
2023-01-27T12:33:00.692Z,21.15
2023-01-27T12:35:34.903Z,24.01
2023-01-27T12:38:08.269Z,21.80
2023-01-27T12:40:41.256Z,22.96
2023-01-27T12:43:13.981Z,33.62
2023-01-27T12:45:43.390Z,33.78
2023-01-27T12:48:20.953Z,21.69
2023-01-27T12:51:04.644Z,20.63
2023-01-27T12:53:32.861Z,19.84
2023-01-27T12:56:11.043Z,19.67
2023-01-27T12:58:41.817Z,19.68
2023-01-27T13:01:24.738Z,21.11
2023-01-27T13:03:57.494Z,20.85
2023-01-27T13:06:43.337Z,20.95
2023-01-27T13:09:31.982Z,21.27
2023-01-27T13:12:03.498Z,20.88
2023-01-27T13:14:40.761Z,20.89
2023-01-27T13:17:30.315Z,21.49
2023-01-27T13:20:04.214Z,21.73
2023-01-27T13:22:42.946Z,21.30
2023-01-27T13:25:20.277Z,22.40
2023-01-27T13:27:51.137Z,22.99
2023-01-27T13:30:28.850Z,22.35
2023-01-27T13:33:03.896Z,22.27
2023-01-27T13:35:38.382Z,22.07
2023-01-27T13:38:18.544Z,22.03
2023-01-27T13:40:48.605Z,21.99
2023-01-27T13:43:24.247Z,21.94
2023-01-27T13:45:58.406Z,21.00
2023-01-27T13:48:33.997Z,38.45
2023-01-27T13:51:08.997Z,22.37
2023-01-27T13:53:40.152Z,21.38
2023-01-27T13:56:22.255Z,21.91
2023-01-27T13:59:06.157Z,22.40
2023-01-27T14:01:47.754Z,22.53
2023-01-27T14:04:42.020Z,21.21
2023-01-27T14:07:22.840Z,22.37
2023-01-27T14:10:16.589Z,20.45
2023-01-27T14:13:04.307Z,20.87
2023-01-27T14:15:41.932Z,21.23
2023-01-27T14:18:18.080Z,21.73
2023-01-27T14:21:11.287Z,21.74
2023-01-27T14:23:52.178Z,22.02
2023-01-27T14:26:42.912Z,22.80
2023-01-27T14:29:28.249Z,22.46
2023-01-27T14:32:08.538Z,22.09
2023-01-27T14:34:57.404Z,22.98
2023-01-27T14:37:33.479Z,22.63
2023-01-27T14:40:16.640Z,23.41
2023-01-27T14:43:01.140Z,27.97
2023-01-27T14:45:34.703Z,22.59
2023-01-27T14:48:17.995Z,22.05
2023-01-27T14:51:00.619Z,20.41
2023-01-27T14:53:48.569Z,20.37
2023-01-27T14:56:28.769Z,20.57
2023-01-27T14:59:08.805Z,20.59
2023-01-27T15:01:47.484Z,20.91
2023-01-27T15:04:37.560Z,20.61
2023-01-27T15:07:17.326Z,20.44
2023-01-27T15:10:04.484Z,19.59
2023-01-27T15:12:53.967Z,21.12
2023-01-27T15:16:01.119Z,20.72
2023-01-27T15:18:56.380Z,20.54
2023-01-27T15:21:50.983Z,20.37
2023-01-27T15:24:48.641Z,19.69
2023-01-27T15:27:16.926Z,18.83
2023-01-27T15:29:46.904Z,19.03
2023-01-27T15:32:28.999Z,19.83
2023-01-27T15:35:30.309Z,21.38
2023-01-27T15:38:01.958Z,20.68
2023-01-27T15:40:30.039Z,20.07
2023-01-27T15:43:06.062Z,19.30
2023-01-27T15:45:36.259Z,19.06
2023-01-27T15:48:12.698Z,18.30
2023-01-27T15:50:48.431Z,18.86
2023-01-27T15:53:24.721Z,18.45
2023-01-27T15:55:57.073Z,19.45
2023-01-27T15:58:35.609Z,18.03
2023-01-27T16:01:08.746Z,17.41
2023-01-27T16:03:48.071Z,17.60
2023-01-27T16:06:22.136Z,18.78
2023-01-27T16:08:53.269Z,16.85
2023-01-27T16:11:41.322Z,16.98
2023-01-27T16:14:39.816Z,16.69
2023-01-27T16:17:26.595Z,17.43
2023-01-27T16:20:13.526Z,16.98
2023-01-27T16:22:45.386Z,17.98
2023-01-27T16:25:25.936Z,17.49
2023-01-27T16:28:03.254Z,16.76
2023-01-27T16:30:36.764Z,16.70
2023-01-27T16:33:08.510Z,17.38
2023-01-27T16:35:49.688Z,16.75
2023-01-27T16:38:26.537Z,16.42
2023-01-27T16:40:58.078Z,16.74
2023-01-27T16:43:32.877Z,20.78
2023-01-27T16:46:02.639Z,17.62
2023-01-27T16:48:38.302Z,17.01
2023-01-27T16:51:16.316Z,17.96
2023-01-27T16:53:48.564Z,18.67
2023-01-27T16:56:24.270Z,18.54
2023-01-27T16:58:55.464Z,19.17
2023-01-27T17:01:29.152Z,19.73
2023-01-27T17:04:14.147Z,20.11
2023-01-27T17:06:49.700Z,22.46
2023-01-27T17:09:22.595Z,19.02
2023-01-27T17:11:50.990Z,34.39
2023-01-27T17:14:30.306Z,38.75
2023-01-27T17:17:02.535Z,18.07
2023-01-27T17:19:33.884Z,17.94
2023-01-27T17:22:10.065Z,17.46
2023-01-27T17:24:43.372Z,16.86
2023-01-27T17:27:24.033Z,16.61
2023-01-27T17:30:00.501Z,16.23
2023-01-27T17:32:33.015Z,17.69
2023-01-27T17:35:06.134Z,18.29
2023-01-27T17:37:43.923Z,20.73
2023-01-27T17:40:17.147Z,19.27
2023-01-27T17:42:45.420Z,17.62
2023-01-27T17:45:25.453Z,19.58
2023-01-27T17:47:54.692Z,17.27
2023-01-27T17:50:26.255Z,18.15
2023-01-27T17:52:57.198Z,17.45
2023-01-27T17:55:30.978Z,17.44
2023-01-27T17:58:07.073Z,16.08
2023-01-27T18:00:40.164Z,16.33
2023-01-27T18:03:16.759Z,16.12
2023-01-27T18:05:47.246Z,15.87
2023-01-27T18:08:18.871Z,15.81
2023-01-27T18:10:47.322Z,15.64
2023-01-27T18:13:38.533Z,16.72
2023-01-27T18:16:15.982Z,17.01
2023-01-27T18:18:44.662Z,17.20
2023-01-27T18:21:18.439Z,16.72
2023-01-27T18:23:49.181Z,16.13
2023-01-27T18:26:22.712Z,16.41
2023-01-27T18:28:56.341Z,16.73
2023-01-27T18:31:27.772Z,16.68
2023-01-27T18:34:01.712Z,17.11
2023-01-27T18:36:34.622Z,18.78
2023-01-27T18:39:03.562Z,17.85
2023-01-27T18:41:35.424Z,17.47
2023-01-27T18:44:04.699Z,17.40
2023-01-27T18:46:32.578Z,17.63
2023-01-27T18:49:00.913Z,18.50
2023-01-27T18:51:28.774Z,20.05
2023-01-27T18:53:56.661Z,18.28
2023-01-27T18:56:24.503Z,16.99
2023-01-27T18:58:54.120Z,18.39
2023-01-27T19:01:25.136Z,18.54
2023-01-27T19:03:57.041Z,18.81
2023-01-27T19:06:26.294Z,19.50
2023-01-27T19:08:54.714Z,23.61
2023-01-27T19:11:22.671Z,23.58
2023-01-27T19:13:50.568Z,24.05
2023-01-27T19:16:19.203Z,21.38
2023-01-27T19:18:48.470Z,20.30
2023-01-27T19:21:17.423Z,20.77
2023-01-27T19:23:45.935Z,20.56
2023-01-27T19:26:18.063Z,22.11
2023-01-27T19:28:48.591Z,19.86
2023-01-27T19:31:16.746Z,19.86
2023-01-27T19:33:45.112Z,20.76
2023-01-27T19:36:22.346Z,22.67
2023-01-27T19:38:56.263Z,23.52
2023-01-27T19:41:24.215Z,21.22
2023-01-27T19:43:52.147Z,20.10
2023-01-27T19:46:23.155Z,20.31
2023-01-27T19:48:51.958Z,19.56
2023-01-27T19:51:21.467Z,21.18
2023-01-27T19:53:49.383Z,22.72
2023-01-27T19:56:19.396Z,20.06
2023-01-27T19:58:51.782Z,21.76
2023-01-27T20:01:20.707Z,24.56
2023-01-27T20:03:48.941Z,23.99
2023-01-27T20:06:21.333Z,20.73
2023-01-27T20:08:55.240Z,19.90
2023-01-27T20:11:32.087Z,20.00
2023-01-27T20:14:01.479Z,21.13
2023-01-27T20:16:30.375Z,20.47
2023-01-27T20:19:00.169Z,20.18
2023-01-27T20:21:28.710Z,21.14
2023-01-27T20:23:58.196Z,19.14
2023-01-27T20:26:26.919Z,19.37
2023-01-27T20:28:54.836Z,21.26
2023-01-27T20:31:23.595Z,22.62
2023-01-27T20:33:51.794Z,20.62
2023-01-27T20:36:22.593Z,20.81
2023-01-27T20:38:51.166Z,20.86
2023-01-27T20:41:22.361Z,20.98
2023-01-27T20:43:55.446Z,22.23
2023-01-27T20:46:23.729Z,20.67
2023-01-27T20:48:51.751Z,22.31
2023-01-27T20:51:19.662Z,21.73
2023-01-27T20:53:47.824Z,20.90
2023-01-27T20:56:18.139Z,22.49
2023-01-27T20:58:48.256Z,28.63
2023-01-27T21:01:18.752Z,26.05
2023-01-27T21:03:47.516Z,24.77
2023-01-27T21:06:17.744Z,22.92
2023-01-27T21:08:47.570Z,21.66
2023-01-27T21:11:17.726Z,22.32
2023-01-27T21:13:47.829Z,22.05
2023-01-27T21:16:15.840Z,23.00
2023-01-27T21:18:44.897Z,22.34
2023-01-27T21:21:23.233Z,22.51
2023-01-27T21:23:51.340Z,22.92
2023-01-27T21:26:19.456Z,22.43
2023-01-27T21:28:48.863Z,22.01
2023-01-27T21:31:18.706Z,22.34
2023-01-27T21:33:47.991Z,23.77
2023-01-27T21:36:16.159Z,27.25
2023-01-27T21:38:44.591Z,23.71
2023-01-27T21:41:36.641Z,20.86
2023-01-27T21:44:24.949Z,27.73
2023-01-27T21:46:52.856Z,31.22
2023-01-27T21:49:20.819Z,26.53
2023-01-27T21:51:50.194Z,20.19
2023-01-27T21:54:18.227Z,23.56
2023-01-27T21:56:46.160Z,32.91
2023-01-27T21:59:15.434Z,27.93
2023-01-27T22:01:43.341Z,24.36
2023-01-27T22:04:11.255Z,24.46
2023-01-27T22:06:39.167Z,27.41
2023-01-27T22:09:07.054Z,26.39
2023-01-27T22:11:34.932Z,25.70
2023-01-27T22:14:02.811Z,23.09
2023-01-27T22:16:32.124Z,22.82
2023-01-27T22:19:00.011Z,20.50
2023-01-27T22:21:27.900Z,19.26
2023-01-27T22:23:55.823Z,20.69
2023-01-27T22:26:23.716Z,21.39
2023-01-27T22:28:51.613Z,27.97
2023-01-27T22:31:19.490Z,33.20
2023-01-27T22:33:48.819Z,31.11
2023-01-27T22:36:16.659Z,26.09
2023-01-27T22:38:44.534Z,22.29
2023-01-27T22:41:12.501Z,26.24
2023-01-27T22:43:40.372Z,24.68
2023-01-27T22:46:08.374Z,24.43
2023-01-27T22:48:36.290Z,23.31
2023-01-27T22:51:06.985Z,23.24
2023-01-27T22:53:35.391Z,24.92
2023-01-27T22:56:04.770Z,23.44
2023-01-27T22:58:33.630Z,20.67
2023-01-27T23:01:01.581Z,21.10
2023-01-27T23:03:29.540Z,20.56
2023-01-27T23:05:57.367Z,20.27
2023-01-27T23:08:26.585Z,20.71
2023-01-27T23:10:54.431Z,19.54
2023-01-27T23:13:22.324Z,18.80
2023-01-27T23:15:50.183Z,19.55
2023-01-27T23:18:18.048Z,18.54
2023-01-27T23:20:46.155Z,18.43
2023-01-27T23:23:14.905Z,18.26
2023-01-27T23:25:45.930Z,18.47
2023-01-27T23:28:14.791Z,18.34
2023-01-27T23:30:44.208Z,17.49
2023-01-27T23:33:12.886Z,19.26
2023-01-27T23:35:40.946Z,19.46
2023-01-27T23:38:22.619Z,18.65
2023-01-27T23:41:01.513Z,18.62
2023-01-27T23:43:30.895Z,17.93
2023-01-27T23:45:59.392Z,18.83
2023-01-27T23:48:27.862Z,17.94
2023-01-27T23:50:56.023Z,17.77
2023-01-27T23:53:24.024Z,16.56
2023-01-27T23:56:00.474Z,17.38
2023-01-27T23:58:28.930Z,17.29
